Time;durP1;ratioP1;P1;durP2;ratioP2;P2;SDS_P1;SDS_P2;PMS_P1;PMS_P2;Temp;Humidity;BMP_temperature;BMP_pressure;BME280_temperature;BME280_humidity;BME280_pressure;Samples;Min_cycle;Max_cycle;Signal;HPM_P1;HPM_P2
2021/05/28 00:02:17;;;;;;;15.90;6.70;;;;;;;18.48;84.31;100654.37;1807489;77;21586;-64
2021/05/28 00:04:44;;;;;;;25.60;6.70;;;;;;;18.45;84.41;100654.56;1807342;79;21936;-64
2021/05/28 00:07:10;;;;;;;15.90;7.08;;;;;;;18.42;84.49;100653.43;1799981;79;21133;-64
2021/05/28 00:09:37;;;;;;;13.13;6.87;;;;;;;18.41;84.53;100651.69;1782581;80;21351;-65
2021/05/28 00:12:05;;;;;;;15.95;6.45;;;;;;;18.41;84.67;100651.22;1782860;79;21271;-64
2021/05/28 00:14:34;;;;;;;12.53;6.85;;;;;;;18.41;84.60;100653.94;1782707;79;21002;-64
2021/05/28 00:17:01;;;;;;;13.70;6.75;;;;;;;18.41;84.78;100650.33;1787393;79;21098;-65
2021/05/28 00:19:27;;;;;;;14.40;6.53;;;;;;;18.40;84.91;100656.73;1807159;77;21719;-65
2021/05/28 00:21:54;;;;;;;17.37;7.03;;;;;;;18.38;85.17;100658.70;1807422;77;21521;-65
2021/05/28 00:24:20;;;;;;;16.27;6.85;;;;;;;18.36;85.35;100656.58;1807238;78;21559;-65
2021/05/28 00:26:47;;;;;;;16.52;7.25;;;;;;;18.33;85.66;100658.53;1788568;78;21647;-66
2021/05/28 00:29:13;;;;;;;13.98;7.28;;;;;;;18.29;85.84;100655.66;1782697;80;21435;-66
2021/05/28 00:31:40;;;;;;;18.40;7.00;;;;;;;18.26;86.06;100658.59;1783043;78;21566;-65
2021/05/28 00:34:07;;;;;;;14.33;6.97;;;;;;;18.24;86.48;100649.69;1782750;80;21017;-65
2021/05/28 00:36:33;;;;;;;19.30;8.40;;;;;;;18.23;86.76;100643.84;1782494;79;21137;-66
2021/05/28 00:39:00;;;;;;;16.67;8.60;;;;;;;18.21;87.04;100648.52;1782176;80;21141;-65
2021/05/28 00:41:26;;;;;;;15.90;9.53;;;;;;;18.18;87.23;100641.48;1782525;79;21152;-65
2021/05/28 00:43:53;;;;;;;17.00;9.55;;;;;;;18.18;87.59;100641.95;1779059;79;21073;-66
2021/05/28 00:46:20;;;;;;;16.90;9.95;;;;;;;18.16;87.81;100641.19;1788172;79;21114;-64
2021/05/28 00:48:51;;;;;;;21.33;8.43;;;;;;;18.11;87.88;100636.06;1807731;79;21457;-64
2021/05/28 00:51:16;;;;;;;17.57;8.30;;;;;;;18.08;88.04;100635.43;1806891;79;21109;-65
2021/05/28 00:53:43;;;;;;;21.82;10.05;;;;;;;18.06;88.38;100638.23;1804968;77;21106;-66
2021/05/28 00:56:11;;;;;;;27.65;10.38;;;;;;;18.02;88.74;100630.81;1778022;79;21022;-66
2021/05/28 00:58:39;;;;;;;30.50;16.40;;;;;;;17.99;89.06;100632.83;1752694;80;21072;-66
2021/05/28 01:01:05;;;;;;;21.80;11.93;;;;;;;17.97;89.36;100632.06;1799092;79;21091;-65
2021/05/28 01:03:33;;;;;;;12.20;9.03;;;;;;;17.94;89.55;100627.70;1801015;79;21516;-66
2021/05/28 01:06:01;;;;;;;12.33;8.53;;;;;;;17.92;89.47;100621.52;1795860;79;21053;-66
2021/05/28 01:08:30;;;;;;;14.07;8.00;;;;;;;17.89;89.56;100621.73;1806578;77;21022;-66
2021/05/28 01:10:58;;;;;;;22.67;8.28;;;;;;;17.86;89.72;100619.23;1806034;79;21436;-66
2021/05/28 01:13:27;;;;;;;16.90;9.45;;;;;;;17.84;89.84;100617.11;1737394;82;21596;-66
2021/05/28 01:15:55;;;;;;;20.15;9.35;;;;;;;17.84;89.70;100614.41;1777415;79;21113;-66
2021/05/28 01:18:21;;;;;;;20.92;10.38;;;;;;;17.79;89.66;100612.47;1774573;79;21141;-66
2021/05/28 01:20:50;;;;;;;13.95;8.20;;;;;;;17.78;89.74;100609.38;1774274;80;21141;-66
2021/05/28 01:23:17;;;;;;;17.30;8.20;;;;;;;17.74;89.80;100612.80;1752604;80;21089;-66
2021/05/28 01:25:45;;;;;;;16.48;8.03;;;;;;;17.70;89.86;100605.86;1796062;79;21299;-66
2021/05/28 01:28:11;;;;;;;21.00;9.10;;;;;;;17.68;89.87;100610.02;1801283;79;21522;-66
2021/05/28 01:30:39;;;;;;;16.48;8.00;;;;;;;17.65;89.99;100611.58;1800528;79;21074;-66
2021/05/28 01:33:06;;;;;;;24.37;10.75;;;;;;;17.62;90.19;100607.72;1801102;79;21554;-66
2021/05/28 01:35:33;;;;;;;20.85;9.43;;;;;;;17.59;90.44;100603.36;1800205;79;21515;-66
2021/05/28 01:37:59;;;;;;;27.35;10.82;;;;;;;17.56;90.68;100604.04;1801144;79;21082;-66
2021/05/28 01:40:26;;;;;;;23.92;10.32;;;;;;;17.52;90.94;100599.34;1800897;79;22201;-66
2021/05/28 01:42:54;;;;;;;19.02;9.13;;;;;;;17.50;91.29;100597.69;1801160;79;21007;-66
2021/05/28 01:45:21;;;;;;;18.23;7.97;;;;;;;17.47;91.44;100598.78;1776763;79;21093;-66
2021/05/28 01:47:47;;;;;;;16.45;8.95;;;;;;;17.43;91.43;100599.45;1774021;79;21089;-66
2021/05/28 01:50:14;;;;;;;17.45;8.95;;;;;;;17.41;91.63;100591.03;1774394;80;21109;-66
2021/05/28 01:52:41;;;;;;;15.70;8.28;;;;;;;17.36;91.72;100590.01;1777163;79;21125;-66
2021/05/28 01:55:11;;;;;;;15.05;8.43;;;;;;;17.33;91.80;100591.54;1800996;79;21129;-66
2021/05/28 01:57:38;;;;;;;20.72;9.05;;;;;;;17.30;91.84;100595.81;1784886;79;21086;-65
2021/05/28 02:00:07;;;;;;;21.45;9.28;;;;;;;17.26;91.80;100596.52;1784135;79;21090;-65
2021/05/28 02:02:34;;;;;;;26.85;13.03;;;;;;;17.24;91.95;100594.87;1783997;80;21057;-64
2021/05/28 02:05:00;;;;;;;22.75;10.13;;;;;;;17.18;91.81;100594.31;1779285;80;21626;-65
2021/05/28 02:07:27;;;;;;;22.60;9.43;;;;;;;17.14;91.69;100592.78;1764997;81;21107;-65
2021/05/28 02:09:54;;;;;;;15.80;8.60;;;;;;;17.11;91.61;100590.23;1765055;81;21046;-65
2021/05/28 02:12:22;;;;;;;18.25;8.10;;;;;;;17.07;91.59;100590.06;1765122;81;21150;-67
2021/05/28 02:14:55;;;;;;;18.52;9.85;;;;;;;17.04;91.60;100594.33;1783355;80;21524;-67
2021/05/28 02:17:18;;;;;;;20.48;8.88;;;;;;;17.04;91.67;100590.27;1784268;79;21126;-66
2021/05/28 02:19:46;;;;;;;19.15;9.95;;;;;;;17.04;91.68;100595.21;1783564;80;21118;-65
2021/05/28 02:22:13;;;;;;;17.15;7.80;;;;;;;17.04;91.54;100595.21;1783861;79;21089;-66
2021/05/28 02:24:39;;;;;;;22.60;8.05;;;;;;;17.01;91.47;100592.67;1767800;80;21598;-64
2021/05/28 02:27:06;;;;;;;24.95;8.13;;;;;;;17.01;91.36;100591.82;1764960;81;21090;-66
2021/05/28 02:29:33;;;;;;;27.65;8.78;;;;;;;16.99;91.37;100592.41;1765491;81;22207;-66
2021/05/28 02:32:00;;;;;;;27.30;9.70;;;;;;;16.99;91.31;100595.11;1765306;81;21173;-66
2021/05/28 02:34:26;;;;;;;17.70;7.47;;;;;;;16.98;91.38;100594.70;1780150;80;21121;-66
2021/05/28 02:36:52;;;;;;;30.12;7.45;;;;;;;16.97;91.52;100584.84;1784077;78;21121;-67
2021/05/28 02:39:19;;;;;;;21.73;7.05;;;;;;;16.99;91.73;100585.64;1784259;78;21102;-66
2021/05/28 02:41:46;;;;;;;12.88;6.67;;;;;;;17.00;91.91;100584.66;1777745;78;21077;-66
2021/05/28 02:44:13;;;;;;;19.20;6.78;;;;;;;17.03;92.15;100583.11;1758831;79;21074;-66
2021/05/28 02:46:39;;;;;;;18.07;6.75;;;;;;;17.07;92.22;100582.44;1760491;79;21062;-66
2021/05/28 02:49:06;;;;;;;11.73;6.95;;;;;;;17.08;92.34;100579.61;1764957;81;21106;-66
2021/05/28 02:51:33;;;;;;;11.40;6.53;;;;;;;17.09;92.46;100581.34;1769870;80;21094;-67
2021/05/28 02:53:59;;;;;;;14.23;6.80;;;;;;;17.11;92.62;100590.23;1784183;79;21598;-66
2021/05/28 02:56:25;;;;;;;10.32;7.00;;;;;;;17.13;92.76;100586.98;1790699;78;21106;-66
2021/05/28 02:58:52;;;;;;;14.65;6.33;;;;;;;17.18;92.92;100587.53;1807224;77;21144;-66
2021/05/28 03:01:19;;;;;;;19.92;6.58;;;;;;;17.24;92.96;100589.45;1806366;77;21081;-65
2021/05/28 03:03:46;;;;;;;14.38;7.37;;;;;;;17.30;92.81;100584.50;1807268;79;21094;-66
2021/05/28 03:06:14;;;;;;;16.48;6.97;;;;;;;17.34;92.61;100582.44;1788738;79;21054;-66
2021/05/28 03:08:40;;;;;;;15.95;7.42;;;;;;;17.40;92.42;100577.98;1782513;78;21086;-65
2021/05/28 03:11:07;;;;;;;13.10;7.10;;;;;;;17.43;92.25;100572.83;1752570;79;21200;-66
2021/05/28 03:13:34;;;;;;;23.55;7.30;;;;;;;17.50;92.07;100579.59;1807116;79;21102;-65
2021/05/28 03:16:02;;;;;;;38.02;8.45;;;;;;;17.57;91.75;100577.31;1807074;79;21071;-65
2021/05/28 03:18:44;;;;;;;29.48;7.55;;;;;;;17.61;91.45;100575.66;1806995;79;21883;-66
2021/05/28 03:21:15;;;;;;;24.15;7.25;;;;;;;17.67;91.18;100577.09;1806581;79;21062;-66
2021/05/28 03:23:26;;;;;;;35.92;7.45;;;;;;;17.75;90.93;100577.44;1777344;79;21241;-65
2021/05/28 03:25:52;;;;;;;26.27;7.28;;;;;;;17.83;90.59;100578.27;1807069;77;21348;-65
2021/05/28 03:28:19;;;;;;;29.52;7.42;;;;;;;17.90;90.05;100571.47;1807189;79;21082;-65
2021/05/28 03:30:45;;;;;;;42.33;8.43;;;;;;;17.95;89.78;100562.99;1807007;79;21120;-65
2021/05/28 03:33:13;;;;;;;31.30;7.62;;;;;;;18.02;89.71;100575.20;1787217;79;21109;-65
2021/05/28 03:35:40;;;;;;;27.15;6.75;;;;;;;18.14;89.42;100565.81;1782618;80;20986;-65
2021/05/28 03:38:07;;;;;;;28.60;6.65;;;;;;;18.24;88.87;100569.64;1783245;80;22020;-65
2021/05/28 03:40:34;;;;;;;37.13;8.18;;;;;;;18.33;88.39;100566.27;1791881;77;21089;-65
2021/05/28 03:43:00;;;;;;;21.25;8.10;;;;;;;18.45;88.00;100570.42;1807206;79;21629;-65
2021/05/28 03:45:27;;;;;;;29.67;7.87;;;;;;;18.57;87.38;100569.56;1784522;79;21599;-65
2021/05/28 03:47:53;;;;;;;21.30;7.37;;;;;;;18.70;86.89;100575.48;1782572;79;21367;-64
2021/05/28 03:50:20;;;;;;;29.42;7.65;;;;;;;18.86;86.08;100577.44;1788850;79;21408;-65
2021/05/28 03:52:46;;;;;;;20.92;7.70;;;;;;;19.00;84.99;100587.31;1805453;77;21191;-68
2021/05/28 03:55:14;;;;;;;17.80;7.87;;;;;;;19.15;83.59;100590.78;1814543;78;20950;-65
2021/05/28 03:57:41;;;;;;;17.73;8.23;;;;;;;19.31;82.72;100586.42;1810322;78;21078;-66
2021/05/28 04:00:09;;;;;;;26.02;8.35;;;;;;;19.47;81.32;100588.85;1803481;79;21113;-66
2021/05/28 04:02:43;;;;;;;35.08;9.23;;;;;;;19.65;80.12;100592.53;1784089;80;21022;-66
2021/05/28 04:05:11;;;;;;;15.72;8.28;;;;;;;19.76;79.48;100593.92;1777973;78;21117;-66
2021/05/28 04:07:38;;;;;;;28.87;8.63;;;;;;;19.85;78.78;100605.09;1765811;81;21620;-66
2021/05/28 04:10:06;;;;;;;18.52;7.80;;;;;;;19.94;77.95;100601.69;1766234;80;20987;-67
2021/05/28 04:12:34;;;;;;;12.98;7.90;;;;;;;20.05;77.01;100609.02;1765651;80;21086;-66
2021/05/28 04:15:01;;;;;;;22.55;9.10;;;;;;;20.12;76.45;100606.22;1765050;81;21428;-66
2021/05/28 04:17:27;;;;;;;13.25;8.48;;;;;;;20.20;76.13;100597.42;1764937;81;21654;-66
2021/05/28 04:19:55;;;;;;;20.52;8.75;;;;;;;20.29;75.04;100596.72;1765386;80;20971;-68
2021/05/28 04:22:24;;;;;;;17.37;8.43;;;;;;;20.38;74.80;100600.58;1766764;79;21038;-66
2021/05/28 04:24:51;;;;;;;15.32;8.03;;;;;;;20.49;74.07;100592.03;1766913;81;21495;-67
2021/05/28 04:27:17;;;;;;;16.37;7.58;;;;;;;20.59;73.29;100589.81;1765392;80;21086;-66
2021/05/28 04:29:44;;;;;;;17.10;8.03;;;;;;;20.72;72.93;100580.16;1776538;80;21392;-66
2021/05/28 04:32:11;;;;;;;15.10;7.35;;;;;;;20.83;72.20;100588.86;1784297;79;21617;-66
2021/05/28 04:34:38;;;;;;;14.65;7.62;;;;;;;20.96;71.31;100583.27;1783747;80;21086;-66
2021/05/28 04:37:05;;;;;;;18.48;8.88;;;;;;;21.01;70.94;100576.09;1786048;79;20903;-66
2021/05/28 04:39:32;;;;;;;11.85;6.97;;;;;;;21.07;70.49;100585.63;1775900;80;20998;-67
2021/05/28 04:41:58;;;;;;;21.62;7.45;;;;;;;21.16;69.77;100581.64;1765509;81;21110;-66
2021/05/28 04:44:26;;;;;;;16.57;7.70;;;;;;;21.24;69.25;100585.59;1765643;81;21086;-66
2021/05/28 04:46:53;;;;;;;15.50;7.12;;;;;;;21.26;68.67;100578.14;1765461;81;21046;-66
2021/05/28 04:49:19;;;;;;;14.05;7.37;;;;;;;21.32;68.56;100577.62;1773173;80;21624;-66
2021/05/28 04:51:46;;;;;;;11.53;7.12;;;;;;;21.38;68.20;100579.86;1784089;80;21090;-66
2021/05/28 04:54:13;;;;;;;15.08;6.90;;;;;;;21.43;67.52;100587.15;1769420;79;21045;-66
2021/05/28 04:56:40;;;;;;;13.62;6.50;;;;;;;21.50;67.18;100582.53;1765611;81;21114;-66
2021/05/28 04:59:07;;;;;;;11.43;6.17;;;;;;;21.61;67.04;100582.51;1771502;80;21098;-66
2021/05/28 05:01:34;;;;;;;9.43;5.78;;;;;;;21.77;66.09;100582.58;1776772;79;20947;-66
2021/05/28 05:04:01;;;;;;;12.78;6.08;;;;;;;21.89;65.40;100575.60;1766084;81;21102;-66
2021/05/28 05:06:27;;;;;;;11.60;5.85;;;;;;;22.00;65.23;100573.31;1739919;81;21111;-67
2021/05/28 05:08:54;;;;;;;9.93;5.70;;;;;;;22.11;64.57;100570.13;1743614;80;21610;-66
2021/05/28 05:11:20;;;;;;;8.40;5.55;;;;;;;22.24;63.96;100572.66;1765677;80;21905;-66
2021/05/28 05:13:47;;;;;;;9.88;5.12;;;;;;;22.37;62.99;100569.70;1765467;81;21589;-65
2021/05/28 05:16:13;;;;;;;14.13;5.20;;;;;;;22.45;62.07;100569.91;1765276;81;21603;-65
2021/05/28 05:18:40;;;;;;;10.38;5.17;;;;;;;22.48;61.28;100568.30;1766459;80;22305;-65
2021/05/28 05:21:08;;;;;;;12.35;5.12;;;;;;;22.48;60.51;100566.94;1784059;79;21684;-65
2021/05/28 05:23:35;;;;;;;7.12;5.03;;;;;;;22.49;60.46;100563.20;1784029;80;21586;-65
2021/05/28 05:26:01;;;;;;;9.48;5.33;;;;;;;22.53;60.61;100557.83;1784223;79;21086;-65
2021/05/28 05:28:28;;;;;;;11.20;5.47;;;;;;;22.58;60.23;100558.28;1772847;79;21534;-65
2021/05/28 05:30:54;;;;;;;9.13;5.28;;;;;;;22.62;60.18;100556.15;1765712;80;21054;-66
2021/05/28 05:33:21;;;;;;;10.40;5.10;;;;;;;22.65;59.99;100560.45;1765442;81;21717;-66
2021/05/28 05:35:47;;;;;;;9.73;5.55;;;;;;;22.68;59.81;100562.94;1764837;81;21075;-66
2021/05/28 05:38:18;;;;;;;9.73;4.80;;;;;;;22.74;59.28;100561.01;1765608;81;21083;-66
2021/05/28 05:40:42;;;;;;;12.98;5.20;;;;;;;22.80;59.24;100565.91;1776144;80;21074;-67
2021/05/28 05:43:09;;;;;;;9.15;4.85;;;;;;;22.93;58.95;100559.35;1765872;80;21606;-64
2021/05/28 05:45:36;;;;;;;8.03;4.83;;;;;;;23.05;58.46;100560.95;1766538;79;21688;-66
2021/05/28 05:48:04;;;;;;;9.78;4.78;;;;;;;23.20;57.97;100555.94;1764578;78;21058;-66
2021/05/28 05:50:31;;;;;;;10.35;5.03;;;;;;;23.34;57.24;100557.46;1703028;81;21042;-65
2021/05/28 05:52:57;;;;;;;11.03;5.10;;;;;;;23.46;55.85;100557.67;1761797;80;21387;-65
2021/05/28 05:55:24;;;;;;;8.68;4.67;;;;;;;23.51;54.60;100554.52;1759175;79;21193;-65
2021/05/28 05:57:51;;;;;;;9.98;4.45;;;;;;;23.58;54.25;100557.55;1762557;79;21090;-66
2021/05/28 06:00:20;;;;;;;6.75;4.70;;;;;;;23.67;54.25;100554.45;1762240;79;21117;-66
2021/05/28 06:02:47;;;;;;;9.68;4.03;;;;;;;23.77;53.37;100553.09;1694872;82;20935;-65
2021/05/28 06:05:17;;;;;;;7.17;4.20;;;;;;;23.81;53.18;100553.15;1760499;79;21150;-64
2021/05/28 06:07:44;;;;;;;13.95;4.80;;;;;;;23.86;52.72;100556.30;1762656;79;21097;-69
2021/05/28 06:10:13;;;;;;;11.55;4.22;;;;;;;23.87;53.08;100545.72;1757108;79;21627;-65
2021/05/28 06:12:39;;;;;;;7.10;4.25;;;;;;;23.98;52.49;100541.44;1756021;79;21109;-65
2021/05/28 06:15:08;;;;;;;11.30;4.35;;;;;;;24.02;52.50;100537.45;1764267;79;21165;-66
2021/05/28 06:17:35;;;;;;;8.98;4.92;;;;;;;24.05;52.52;100536.27;1761195;79;21614;-66
2021/05/28 06:20:02;;;;;;;7.60;4.53;;;;;;;24.12;52.37;100536.55;1760941;79;21421;-66
2021/05/28 06:22:31;;;;;;;11.90;4.47;;;;;;;24.18;52.41;100531.84;1761017;79;21098;-65
2021/05/28 06:24:59;;;;;;;9.88;4.00;;;;;;;24.32;52.33;100524.53;1759373;79;22088;-65
2021/05/28 06:27:28;;;;;;;9.75;4.58;;;;;;;24.50;51.64;100533.83;1764921;78;21293;-65
2021/05/28 06:29:55;;;;;;;7.50;4.55;;;;;;;24.60;50.88;100528.66;1704436;81;22129;-65
2021/05/28 06:32:22;;;;;;;9.43;4.05;;;;;;;24.68;50.79;100529.28;1756690;79;21535;-66
2021/05/28 06:34:48;;;;;;;13.78;4.00;;;;;;;24.71;50.66;100528.13;1758797;79;21122;-64
2021/05/28 06:37:15;;;;;;;12.20;4.62;;;;;;;24.75;50.80;100526.31;1759862;79;21484;-64
2021/05/28 06:39:43;;;;;;;11.10;3.85;;;;;;;24.73;50.25;100527.47;1763834;79;21543;-65
2021/05/28 06:42:10;;;;;;;10.80;4.28;;;;;;;24.58;50.45;100523.84;1764776;79;21579;-65
2021/05/28 06:44:37;;;;;;;13.00;4.08;;;;;;;24.52;50.81;100521.72;1753566;79;22140;-65
2021/05/28 06:47:05;;;;;;;10.55;4.28;;;;;;;24.57;51.08;100519.38;1762918;80;21521;-65
2021/05/28 06:49:32;;;;;;;18.45;4.72;;;;;;;24.60;50.86;100516.86;1762861;79;21108;-63
2021/05/28 06:51:58;;;;;;;11.75;4.65;;;;;;;24.63;50.93;100518.41;1760773;79;21111;-67
2021/05/28 06:54:25;;;;;;;12.50;4.12;;;;;;;24.70;50.77;100519.55;1755805;79;21497;-66
2021/05/28 06:56:53;;;;;;;12.75;4.72;;;;;;;24.82;50.03;100519.72;1754242;79;21176;-65
2021/05/28 06:59:21;;;;;;;16.02;5.45;;;;;;;24.91;49.53;100520.68;1766381;79;21672;-67
2021/05/28 07:01:48;;;;;;;10.38;4.15;;;;;;;25.08;49.58;100525.83;1745467;79;21091;-64
2021/05/28 07:04:14;;;;;;;18.23;4.28;;;;;;;25.26;48.70;100514.02;1743027;79;21063;-64
2021/05/28 07:06:41;;;;;;;20.95;4.25;;;;;;;25.49;48.23;100520.45;1761589;79;21074;-64
2021/05/28 07:09:09;;;;;;;15.95;4.83;;;;;;;25.67;48.24;100513.06;1747290;81;21544;-64
2021/05/28 07:11:36;;;;;;;12.15;3.80;;;;;;;25.88;47.47;100518.23;1755385;79;21754;-63
2021/05/28 07:14:05;;;;;;;12.58;4.00;;;;;;;25.99;47.09;100512.98;1657713;84;21145;-64
2021/05/28 07:16:32;;;;;;;9.83;4.50;;;;;;;26.08;46.29;100514.41;1685525;83;21162;-64
2021/05/28 07:19:00;;;;;;;15.65;4.60;;;;;;;26.26;45.71;100512.50;1685229;82;21405;-68
2021/05/28 07:21:28;;;;;;;14.45;4.35;;;;;;;26.48;45.70;100508.83;1746195;79;21146;-68
2021/05/28 07:23:55;;;;;;;12.45;4.22;;;;;;;26.66;45.93;100503.77;1762108;79;21582;-69
2021/05/28 07:26:21;;;;;;;6.40;3.35;;;;;;;26.80;45.66;100502.27;1746381;80;21102;-68
2021/05/28 07:28:48;;;;;;;11.88;4.00;;;;;;;26.98;43.53;100502.17;1758387;79;21063;-65
2021/05/28 07:31:15;;;;;;;23.80;4.55;;;;;;;27.12;43.96;100501.53;1754339;79;21102;-67
2021/05/28 07:33:42;;;;;;;27.48;4.92;;;;;;;27.24;43.65;100501.19;1756543;79;21071;-66
2021/05/28 07:36:09;;;;;;;14.35;4.30;;;;;;;27.23;43.73;100500.84;1756040;81;21684;-66
2021/05/28 07:38:36;;;;;;;22.65;4.62;;;;;;;27.07;44.25;100498.93;1747828;81;21142;-65
2021/05/28 07:41:03;;;;;;;21.75;4.50;;;;;;;26.99;44.38;100495.64;1745538;79;21126;-65
2021/05/28 07:43:30;;;;;;;24.27;4.75;;;;;;;26.80;44.45;100496.23;1753288;80;21145;-64
2021/05/28 07:45:58;;;;;;;19.77;4.20;;;;;;;26.69;44.55;100496.55;1749757;79;21075;-65
2021/05/28 07:48:25;;;;;;;12.03;3.72;;;;;;;26.71;44.29;100496.72;1750507;79;22360;-65
2021/05/28 07:50:58;;;;;;;15.50;3.85;;;;;;;26.69;43.75;100493.27;1760920;79;21754;-65
2021/05/28 07:53:24;;;;;;;13.30;4.33;;;;;;;26.60;44.60;100486.88;1751900;79;21483;-65
2021/05/28 07:55:50;;;;;;;15.70;3.90;;;;;;;26.56;45.11;100484.12;1755682;79;21107;-64
2021/05/28 07:58:17;;;;;;;11.73;3.42;;;;;;;26.52;45.12;100484.61;1749951;79;21368;-64
2021/05/28 08:00:43;;;;;;;7.42;3.45;;;;;;;26.52;44.53;100478.61;1726977;81;21694;-65
2021/05/28 08:03:10;;;;;;;10.63;3.75;;;;;;;26.52;44.25;100484.61;1722811;81;21115;-64
2021/05/28 08:05:38;;;;;;;8.20;3.72;;;;;;;26.54;44.65;100479.30;1723549;81;21519;-66
2021/05/28 08:08:09;;;;;;;7.28;3.80;;;;;;;26.59;44.21;100474.16;1771201;79;21203;-65
2021/05/28 08:10:35;;;;;;;6.90;3.20;;;;;;;26.68;44.03;100479.71;1761918;79;21091;-65
2021/05/28 08:13:03;;;;;;;11.75;3.95;;;;;;;26.72;43.37;100476.97;1771713;79;21792;-64
2021/05/28 08:15:31;;;;;;;14.07;3.75;;;;;;;26.79;42.81;100483.52;1780876;79;22425;-66
2021/05/28 08:17:58;;;;;;;5.53;2.95;;;;;;;26.81;42.33;100479.23;1770054;79;21085;-64
2021/05/28 08:20:25;;;;;;;8.65;3.52;;;;;;;26.81;41.82;100481.98;1781060;79;21599;-64
2021/05/28 08:22:54;;;;;;;7.90;3.22;;;;;;;26.85;42.25;100473.25;1772484;79;21092;-65
2021/05/28 08:25:21;;;;;;;10.93;3.55;;;;;;;26.91;41.88;100467.59;1767101;79;21157;-64
2021/05/28 08:27:47;;;;;;;13.15;3.50;;;;;;;26.93;42.12;100466.91;1770555;79;21084;-67
2021/05/28 08:30:16;;;;;;;8.85;3.33;;;;;;;26.93;42.31;100471.56;1763813;79;21132;-65
2021/05/28 08:32:43;;;;;;;7.30;3.30;;;;;;;26.86;42.35;100464.00;1779798;79;21390;-64
2021/05/28 08:35:10;;;;;;;17.92;4.47;;;;;;;26.75;42.79;100461.51;1760753;79;21100;-64
2021/05/28 08:37:38;;;;;;;11.57;3.45;;;;;;;26.69;43.04;100456.16;1774075;79;46961;-65
2021/05/28 08:40:06;;;;;;;13.00;3.87;;;;;;;26.70;42.94;100454.28;1770364;79;21115;-67
2021/05/28 08:42:34;;;;;;;11.43;3.67;;;;;;;26.71;43.21;100450.50;1778019;79;21302;-63
2021/05/28 08:45:05;;;;;;;4.65;3.10;;;;;;;26.72;43.05;100446.20;1772032;79;22347;-64
2021/05/28 08:47:34;;;;;;;15.80;3.52;;;;;;;26.74;42.28;100448.79;1769453;79;20971;-66
2021/05/28 08:50:03;;;;;;;15.20;3.02;;;;;;;26.70;42.28;100444.66;1771798;79;21106;-70
2021/05/28 08:52:30;;;;;;;17.48;4.15;;;;;;;26.66;41.74;100447.41;1772453;79;21046;-67
2021/05/28 08:54:57;;;;;;;20.15;3.60;;;;;;;26.65;42.54;100449.80;1773785;79;20911;-63
2021/05/28 08:57:25;;;;;;;22.13;3.52;;;;;;;26.65;42.24;100438.81;1772640;79;21097;-62
2021/05/28 08:59:52;;;;;;;12.40;3.35;;;;;;;26.65;42.46;100437.44;1771361;79;21137;-66
2021/05/28 09:02:35;;;;;;;11.45;3.42;;;;;;;26.67;42.33;100432.63;1771778;79;21390;-63
2021/05/28 09:05:17;;;;;;;11.05;3.30;;;;;;;26.69;42.54;100446.53;1745731;79;21512;-67
2021/05/28 09:07:58;;;;;;;5.33;2.58;;;;;;;26.69;41.78;100447.91;1769486;79;20891;-63
2021/05/28 09:10:42;;;;;;;8.53;2.85;;;;;;;26.64;41.69;100437.06;1776955;79;20992;-68
2021/05/28 09:13:17;;;;;;;4.97;2.85;;;;;;;26.57;41.73;100445.98;1785025;79;20934;-69
2021/05/28 09:15:50;;;;;;;7.60;2.87;;;;;;;26.50;40.68;100446.31;1782665;79;20946;-64
2021/05/28 09:18:17;;;;;;;7.25;3.30;;;;;;;26.44;40.50;100442.86;1785863;78;21050;-61
2021/05/28 09:20:50;;;;;;;8.68;2.83;;;;;;;26.36;41.29;100437.31;1750404;80;21097;-66
2021/05/28 09:23:19;;;;;;;7.58;2.80;;;;;;;26.27;40.59;100432.28;1736246;80;21425;-62
2021/05/28 09:26:07;;;;;;;5.28;2.90;;;;;;;26.23;40.50;100428.16;1737334;80;20998;-65
2021/05/28 09:28:42;;;;;;;7.90;2.95;;;;;;;26.22;40.21;100427.30;1740313;80;21041;-64
2021/05/28 09:31:19;;;;;;;7.67;2.52;;;;;;;26.22;40.36;100425.06;1732842;80;21416;-68
2021/05/28 09:33:48;;;;;;;4.05;2.50;;;;;;;26.21;40.11;100418.72;1742701;80;20954;-67
2021/05/28 09:36:27;;;;;;;11.85;2.92;;;;;;;26.25;39.58;100424.23;1728770;81;21003;-68
2021/05/28 09:39:11;;;;;;;13.38;3.12;;;;;;;26.28;39.94;100418.40;1728091;81;20897;-68
2021/05/28 09:41:50;;;;;;;11.97;3.05;;;;;;;26.36;40.08;100415.33;1723107;81;21148;-66
2021/05/28 09:44:27;;;;;;;4.65;2.62;;;;;;;26.48;39.90;100421.38;1725166;81;20928;-68
2021/05/28 09:47:11;;;;;;;8.23;2.70;;;;;;;26.56;39.04;100422.27;1736620;80;21151;-67
2021/05/28 09:49:44;;;;;;;7.75;2.77;;;;;;;26.63;38.98;100417.47;1775701;79;22284;-67
2021/05/28 09:52:20;;;;;;;6.80;3.12;;;;;;;26.63;38.99;100419.72;1776857;79;21293;-67
2021/05/28 09:54:56;;;;;;;8.68;3.10;;;;;;;26.68;39.47;100413.73;1774859;79;21886;-68
2021/05/28 09:57:42;;;;;;;6.12;2.92;;;;;;;26.73;39.32;100416.83;1774219;79;20970;-67
2021/05/28 10:00:26;;;;;;;6.47;3.05;;;;;;;26.79;39.96;100415.30;1777467;79;20927;-67
2021/05/28 10:03:24;;;;;;;4.70;2.77;;;;;;;26.79;40.26;100406.52;1780602;79;21078;-69
2021/05/28 10:05:56;;;;;;;7.53;2.90;;;;;;;26.86;40.99;100403.49;1776603;79;21591;-65
2021/05/28 10:08:25;;;;;;;8.55;2.95;;;;;;;26.97;40.96;100409.68;1783587;79;21298;-66
2021/05/28 10:10:55;;;;;;;5.72;3.05;;;;;;;26.98;41.50;100418.28;1754938;79;21086;-66
2021/05/28 10:13:26;;;;;;;4.20;3.05;;;;;;;26.93;42.35;100407.77;1754006;80;20998;-67
2021/05/28 10:15:55;;;;;;;3.08;2.83;;;;;;;26.87;42.93;100414.84;1752820;80;20967;-67
2021/05/28 10:18:22;;;;;;;6.33;3.00;;;;;;;26.81;43.67;100407.74;1744752;80;21487;-66
2021/05/28 10:20:54;;;;;;;5.78;3.20;;;;;;;26.75;44.08;100410.64;1744411;80;21453;-65
2021/05/28 10:23:22;;;;;;;6.30;3.22;;;;;;;26.70;44.55;100403.42;1740359;81;21725;-68
2021/05/28 10:25:56;;;;;;;4.40;3.90;;;;;;;26.65;45.27;100405.83;1752098;80;21727;-69
2021/05/28 10:28:33;;;;;;;4.62;3.60;;;;;;;26.54;45.86;100397.38;1740216;80;21122;-68
2021/05/28 10:30:59;;;;;;;4.22;3.60;;;;;;;26.42;46.76;100402.32;1740970;82;21009;-68
2021/05/28 10:33:29;;;;;;;5.97;3.95;;;;;;;26.29;47.94;100399.51;1739131;80;21117;-65
2021/05/28 10:35:58;;;;;;;9.35;3.85;;;;;;;26.17;48.46;100398.95;1744420;81;20940;-65
2021/05/28 10:38:41;;;;;;;4.37;3.60;;;;;;;26.08;48.97;100392.17;1749192;80;21597;-66
2021/05/28 10:41:19;;;;;;;3.92;3.47;;;;;;;25.97;49.13;100381.80;1742592;80;21129;-64
2021/05/28 10:43:54;;;;;;;10.13;4.35;;;;;;;25.89;49.60;100387.27;1743178;80;21124;-64
2021/05/28 10:46:21;;;;;;;7.55;4.28;;;;;;;25.83;50.57;100381.06;1740326;80;21646;-67
2021/05/28 10:49:06;;;;;;;9.23;4.40;;;;;;;25.77;50.66;100386.69;1739865;80;21115;-68
2021/05/28 10:51:38;;;;;;;5.37;3.98;;;;;;;25.73;50.25;100378.44;1739706;80;21510;-66
2021/05/28 10:54:20;;;;;;;8.08;3.98;;;;;;;25.67;49.93;100378.56;1739957;80;21141;-66
2021/05/28 10:56:47;;;;;;;6.45;3.85;;;;;;;25.65;49.97;100375.13;1736530;80;21181;-63
2021/05/28 10:59:19;;;;;;;6.97;3.52;;;;;;;25.61;50.40;100376.47;1740161;80;21587;-64
2021/05/28 11:01:53;;;;;;;7.25;4.17;;;;;;;25.57;50.38;100366.84;1746636;80;21129;-64
2021/05/28 11:04:26;;;;;;;11.05;4.00;;;;;;;25.56;50.82;100370.09;1745011;80;20940;-64
2021/05/28 11:07:02;;;;;;;6.30;4.33;;;;;;;25.54;50.97;100369.92;1710754;80;21003;-64
2021/05/28 11:09:48;;;;;;;7.42;4.30;;;;;;;25.53;51.35;100373.66;1754776;80;20895;-64
2021/05/28 11:12:16;;;;;;;8.65;3.80;;;;;;;25.50;51.40;100365.75;1796766;78;21040;-63
2021/05/28 11:15:09;;;;;;;6.65;4.53;;;;;;;25.45;51.28;100358.83;1793181;78;21036;-63
2021/05/28 11:17:59;;;;;;;7.40;3.98;;;;;;;25.43;50.88;100359.51;1795754;78;21039;-65
2021/05/28 11:20:36;;;;;;;4.95;4.45;;;;;;;25.39;50.80;100360.86;1793628;78;21049;-63
2021/05/28 11:23:10;;;;;;;6.35;3.83;;;;;;;25.35;51.31;100360.83;1796594;78;20983;-65
2021/05/28 11:25:51;;;;;;;8.90;4.00;;;;;;;25.32;51.84;100361.16;1792451;78;21670;-66
2021/05/28 11:28:19;;;;;;;5.70;4.28;;;;;;;25.32;52.36;100352.92;1789424;78;20930;-63